^^
Saratoga-Weather Station Historical Data
Daily Summary for January 14, 2020 Units:  Both    English   Metric
Daily Weekly Monthly Yearly Custom
  High: Low: Average:
Temperature: 49.6 °F /  9.8 °C 38.7 °F /  3.7 °C 43 °F /  6.1 °C
Dew Point: 43.3 °F /  6.3 °C 37.6 °F /  3.1 °C 40.1 °F /  4.5 °C
Humidity: 97% 76% 90%
Wind Speed: 6.9mph /  11.1km/h - 0.4mph /  0.6km/h
Wind Gust: 8mph /  12.9km/h - -
Wind- - ESE
Pressure: 29.9 in /  1010.8 hPa 29.8 in /  1008.5 hPa -
Precipitation: 0 in /  0.0 mm    
Historical Graphs
 
 
Tabular Data for January 14, 2020
Time Temperature Dew Point Pressure Wind Wind Speed Wind Gust Humidity Rainfall Rate (Hourly) solar
00:01 39.7 °F /  4.3 °C 38.7 °F /  3.7 °C 29.9in /  1010.8hPa NE 2mph /  3.2km/h 2mph /  3.2km/h 96% 0in /  0.0mm 0 W/m2
00:06 39.9 °F /  4.4 °C 38.8 °F /  3.8 °C 29.9in /  1010.8hPa NE 0.9mph /  1.4km/h 3mph /  4.8km/h 96% 0in /  0.0mm 0 W/m2
00:11 40.3 °F /  4.6 °C 39.2 °F /  4 °C 29.8in /  1010.5hPa ENE 2.9mph /  4.7km/h 6mph /  9.7km/h 96% 0in /  0.0mm 0 W/m2
00:16 40.5 °F /  4.7 °C 39.4 °F /  4.1 °C 29.8in /  1010.5hPa NE 0.9mph /  1.4km/h 3mph /  4.8km/h 96% 0in /  0.0mm 0 W/m2
00:21 40.6 °F /  4.8 °C 39.4 °F /  4.1 °C 29.9in /  1010.8hPa NE 2mph /  3.2km/h 3mph /  4.8km/h 95% 0in /  0.0mm 0 W/m2
00:26 40.6 °F /  4.8 °C 39.4 °F /  4.1 °C 29.9in /  1010.8hPa Calm   1mph /  1.6km/h 95% 0in /  0.0mm 0 W/m2
00:31 40.8 °F /  4.9 °C 39.6 °F /  4.2 °C 29.8in /  1010.5hPa ENE 0.9mph /  1.4km/h 3mph /  4.8km/h 95% 0in /  0.0mm 0 W/m2
00:36 40.8 °F /  4.9 °C 39.6 °F /  4.2 °C 29.9in /  1010.8hPa Calm     95% 0in /  0.0mm 0 W/m2
00:41 40.8 °F /  4.9 °C 39.2 °F /  4 °C 29.9in /  1010.8hPa Calm   2mph /  3.2km/h 94% 0in /  0.0mm 0 W/m2
00:46 40.8 °F /  4.9 °C 39.2 °F /  4 °C 29.9in /  1010.8hPa Calm     94% 0in /  0.0mm 0 W/m2
00:51 40.8 °F /  4.9 °C 39.2 °F /  4 °C 29.8in /  1010.5hPa Calm   1mph /  1.6km/h 94% 0in /  0.0mm 0 W/m2
00:56 40.8 °F /  4.9 °C 39.2 °F /  4 °C 29.8in /  1010.5hPa Calm     94% 0in /  0.0mm 0 W/m2
01:01 40.8 °F /  4.9 °C 39.2 °F /  4 °C 29.8in /  1010.5hPa Calm     94% 0in /  0.0mm 0 W/m2
01:06 40.6 °F /  4.8 °C 39 °F /  3.9 °C 29.8in /  1010.5hPa Calm     94% 0in /  0.0mm 0 W/m2
01:11 40.6 °F /  4.8 °C 39 °F /  3.9 °C 29.8in /  1010.5hPa East 0.9mph /  1.4km/h 1mph /  1.6km/h 94% 0in /  0.0mm 0 W/m2
01:16 40.6 °F /  4.8 °C 39 °F /  3.9 °C 29.8in /  1010.5hPa Calm     94% 0in /  0.0mm 0 W/m2
01:21 40.6 °F /  4.8 °C 39 °F /  3.9 °C 29.8in /  1010.5hPa NE 0.9mph /  1.4km/h 2mph /  3.2km/h 94% 0in /  0.0mm 0 W/m2
01:26 40.8 °F /  4.9 °C 39.2 °F /  4 °C 29.8in /  1010.5hPa ENE 2mph /  3.2km/h 3mph /  4.8km/h 94% 0in /  0.0mm 0 W/m2
01:31 41 °F /  5 °C 39.4 °F /  4.1 °C 29.8in /  1010.5hPa Calm   2mph /  3.2km/h 94% 0in /  0.0mm 0 W/m2
01:36 41.2 °F /  5.1 °C 39.4 °F /  4.1 °C 29.8in /  1010.5hPa ENE 0.9mph /  1.4km/h 1mph /  1.6km/h 93% 0in /  0.0mm 0 W/m2
01:41 41.2 °F /  5.1 °C 39.4 °F /  4.1 °C 29.8in /  1010.5hPa Calm   1mph /  1.6km/h 93% 0in /  0.0mm 0 W/m2
01:46 41.2 °F /  5.1 °C 39.4 °F /  4.1 °C 29.8in /  1010.2hPa East 2mph /  3.2km/h 3mph /  4.8km/h 93% 0in /  0.0mm 0 W/m2
01:52 41.2 °F /  5.1 °C 39.4 °F /  4.1 °C 29.8in /  1010.2hPa East 0.9mph /  1.4km/h 2mph /  3.2km/h 93% 0in /  0.0mm 0 W/m2
01:57 41.4 °F /  5.2 °C 39.6 °F /  4.2 °C 29.8in /  1010.2hPa ENE 0.9mph /  1.4km/h 3mph /  4.8km/h 93% 0in /  0.0mm 0 W/m2
02:02 41.4 °F /  5.2 °C 39.6 °F /  4.2 °C 29.8in /  1010.2hPa Calm   1mph /  1.6km/h 93% 0in /  0.0mm 0 W/m2
02:07 41.4 °F /  5.2 °C 39.6 °F /  4.2 °C 29.8in /  1010.2hPa Calm   3mph /  4.8km/h 93% 0in /  0.0mm 0 W/m2
02:12 41.4 °F /  5.2 °C 39.6 °F /  4.2 °C 29.8in /  1010.2hPa Calm     93% 0in /  0.0mm 0 W/m2
02:17 41.4 °F /  5.2 °C 39.6 °F /  4.2 °C 29.8in /  1010.2hPa Calm     93% 0in /  0.0mm 0 W/m2
02:22 41.2 °F /  5.1 °C 39.4 °F /  4.1 °C 29.8in /  1010.2hPa Calm     93% 0in /  0.0mm 0 W/m2
02:27 41 °F /  5 °C 39.2 °F /  4 °C 29.8in /  1010.2hPa Calm     93% 0in /  0.0mm 0 W/m2
02:32 40.8 °F /  4.9 °C 39 °F /  3.9 °C 29.8in /  1010.2hPa Calm     93% 0in /  0.0mm 0 W/m2
02:37 40.8 °F /  4.9 °C 39 °F /  3.9 °C 29.8in /  1010.5hPa Calm     93% 0in /  0.0mm 0 W/m2
02:42 40.8 °F /  4.9 °C 39.2 °F /  4 °C 29.8in /  1010.5hPa ENE 0.9mph /  1.4km/h 1mph /  1.6km/h 94% 0in /  0.0mm 0 W/m2
02:47 40.8 °F /  4.9 °C 39.2 °F /  4 °C 29.8in /  1010.5hPa Calm     94% 0in /  0.0mm 0 W/m2
02:52 40.8 °F /  4.9 °C 39.2 °F /  4 °C 29.8in /  1010.2hPa Calm     94% 0in /  0.0mm 0 W/m2
02:57 40.8 °F /  4.9 °C 39.2 °F /  4 °C 29.8in /  1010.2hPa Calm   1mph /  1.6km/h 94% 0in /  0.0mm 0 W/m2
03:02 40.8 °F /  4.9 °C 39.2 °F /  4 °C 29.8in /  1010.2hPa Calm     94% 0in /  0.0mm 0 W/m2
03:07 40.8 °F /  4.9 °C 39.2 °F /  4 °C 29.8in /  1010.2hPa ESE 0.9mph /  1.4km/h 3mph /  4.8km/h 94% 0in /  0.0mm 0 W/m2
03:12 40.6 °F /  4.8 °C 39 °F /  3.9 °C 29.8in /  1010.2hPa Calm     94% 0in /  0.0mm 0 W/m2
03:17 40.6 °F /  4.8 °C 39.4 °F /  4.1 °C 29.8in /  1010.2hPa ESE 0.9mph /  1.4km/h 3mph /  4.8km/h 95% 0in /  0.0mm 0 W/m2
03:22 40.6 °F /  4.8 °C 39.4 °F /  4.1 °C 29.8in /  1010.2hPa ESE 0.9mph /  1.4km/h 2mph /  3.2km/h 95% 0in /  0.0mm 0 W/m2
03:27 40.6 °F /  4.8 °C 39.4 °F /  4.1 °C 29.8in /  1010.2hPa Calm   3mph /  4.8km/h 95% 0in /  0.0mm 0 W/m2
03:32 40.6 °F /  4.8 °C 39.4 °F /  4.1 °C 29.8in /  1010.2hPa Calm     95% 0in /  0.0mm 0 W/m2
03:37 40.6 °F /  4.8 °C 39.4 °F /  4.1 °C 29.8in /  1010.2hPa Calm     95% 0in /  0.0mm 0 W/m2
03:42 40.6 °F /  4.8 °C 39.4 °F /  4.1 °C 29.8in /  1010.2hPa Calm     95% 0in /  0.0mm 0 W/m2
03:47 40.6 °F /  4.8 °C 39.4 °F /  4.1 °C 29.8in /  1010.2hPa Calm     95% 0in /  0.0mm 0 W/m2
03:52 40.6 °F /  4.8 °C 39.4 °F /  4.1 °C 29.8in /  1009.8hPa Calm     95% 0in /  0.0mm 0 W/m2
03:57 40.6 °F /  4.8 °C 39.4 °F /  4.1 °C 29.8in /  1009.8hPa Calm     95% 0in /  0.0mm 0 W/m2
04:02 40.6 °F /  4.8 °C 39.4 °F /  4.1 °C 29.8in /  1009.8hPa Calm     95% 0in /  0.0mm 0 W/m2
04:07 40.6 °F /  4.8 °C 39.4 °F /  4.1 °C 29.8in /  1009.8hPa Calm     95% 0in /  0.0mm 0 W/m2
04:12 40.6 °F /  4.8 °C 39.4 °F /  4.1 °C 29.8in /  1009.8hPa Calm     95% 0in /  0.0mm 0 W/m2
04:17 40.6 °F /  4.8 °C 39.4 °F /  4.1 °C 29.8in /  1009.8hPa Calm     95% 0in /  0.0mm 0 W/m2
04:22 40.6 °F /  4.8 °C 39.4 °F /  4.1 °C 29.8in /  1009.8hPa Calm     95% 0in /  0.0mm 0 W/m2
04:27 40.6 °F /  4.8 °C 39.4 °F /  4.1 °C 29.8in /  1009.5hPa Calm     95% 0in /  0.0mm 0 W/m2
04:32 40.8 °F /  4.9 °C 39.7 °F /  4.3 °C 29.8in /  1009.5hPa Calm     96% 0in /  0.0mm 0 W/m2
04:37 40.8 °F /  4.9 °C 39.7 °F /  4.3 °C 29.8in /  1009.5hPa Calm     96% 0in /  0.0mm 0 W/m2
04:42 40.8 °F /  4.9 °C 39.7 °F /  4.3 °C 29.8in /  1009.8hPa Calm     96% 0in /  0.0mm 0 W/m2
04:47 40.8 °F /  4.9 °C 39.7 °F /  4.3 °C 29.8in /  1009.8hPa Calm     96% 0in /  0.0mm 0 W/m2
04:52 40.8 °F /  4.9 °C 39.7 °F /  4.3 °C 29.8in /  1009.8hPa Calm     96% 0in /  0.0mm 0 W/m2
04:57 40.8 °F /  4.9 °C 39.7 °F /  4.3 °C 29.8in /  1009.8hPa Calm     96% 0in /  0.0mm 0 W/m2
05:02 40.8 °F /  4.9 °C 39.7 °F /  4.3 °C 29.8in /  1009.8hPa Calm     96% 0in /  0.0mm 0 W/m2
05:07 40.8 °F /  4.9 °C 39.7 °F /  4.3 °C 29.8in /  1009.8hPa Calm     96% 0in /  0.0mm 0 W/m2
05:12 40.8 °F /  4.9 °C 39.7 °F /  4.3 °C 29.8in /  1009.8hPa Calm     96% 0in /  0.0mm 0 W/m2
05:17 40.8 °F /  4.9 °C 39.7 °F /  4.3 °C 29.8in /  1009.8hPa Calm     96% 0in /  0.0mm 0 W/m2
05:22 41 °F /  5 °C 39.9 °F /  4.4 °C 29.8in /  1009.8hPa Calm     96% 0in /  0.0mm 0 W/m2
05:27 41 °F /  5 °C 39.9 °F /  4.4 °C 29.8in /  1009.8hPa Calm     96% 0in /  0.0mm 0 W/m2
05:32 41 °F /  5 °C 39.9 °F /  4.4 °C 29.8in /  1009.8hPa Calm     96% 0in /  0.0mm 0 W/m2
05:37 41 °F /  5 °C 39.9 °F /  4.4 °C 29.8in /  1009.8hPa Calm     96% 0in /  0.0mm 0 W/m2
05:42 41 °F /  5 °C 39.9 °F /  4.4 °C 29.8in /  1009.8hPa Calm     96% 0in /  0.0mm 0 W/m2
05:47 41 °F /  5 °C 39.9 °F /  4.4 °C 29.8in /  1009.8hPa Calm     96% 0in /  0.0mm 0 W/m2
05:52 41 °F /  5 °C 39.9 °F /  4.4 °C 29.8in /  1009.8hPa Calm     96% 0in /  0.0mm 0 W/m2
05:57 40.8 °F /  4.9 °C 39.7 °F /  4.3 °C 29.8in /  1009.8hPa Calm     96% 0in /  0.0mm 0 W/m2
06:02 40.8 °F /  4.9 °C 39.7 °F /  4.3 °C 29.8in /  1009.5hPa Calm     96% 0in /  0.0mm 0 W/m2
06:07 40.6 °F /  4.8 °C 39.6 °F /  4.2 °C 29.8in /  1009.8hPa Calm     96% 0in /  0.0mm 0 W/m2
06:12 40.6 °F /  4.8 °C 39.6 °F /  4.2 °C 29.8in /  1009.5hPa Calm     96% 0in /  0.0mm 0 W/m2
06:17 40.6 °F /  4.8 °C 39.6 °F /  4.2 °C 29.8in /  1009.5hPa Calm     96% 0in /  0.0mm 0 W/m2
06:22 40.5 °F /  4.7 °C 39.4 °F /  4.1 °C 29.8in /  1009.5hPa Calm     96% 0in /  0.0mm 0 W/m2
06:27 40.5 °F /  4.7 °C 39.4 °F /  4.1 °C 29.8in /  1009.5hPa Calm     96% 0in /  0.0mm 0 W/m2
06:32 40.5 °F /  4.7 °C 39.4 °F /  4.1 °C 29.8in /  1009.5hPa Calm     96% 0in /  0.0mm 0 W/m2
06:37 40.3 °F /  4.6 °C 39.2 °F /  4 °C 29.8in /  1009.8hPa Calm     96% 0in /  0.0mm 0 W/m2
06:42 40.1 °F /  4.5 °C 39 °F /  3.9 °C 29.8in /  1009.8hPa Calm     96% 0in /  0.0mm 0 W/m2
06:47 39.9 °F /  4.4 °C 38.8 °F /  3.8 °C 29.8in /  1009.5hPa Calm     96% 0in /  0.0mm 0 W/m2
06:52 39.9 °F /  4.4 °C 38.8 °F /  3.8 °C 29.8in /  1009.8hPa Calm     96% 0in /  0.0mm 0 W/m2
06:57 39.9 °F /  4.4 °C 38.8 °F /  3.8 °C 29.8in /  1009.8hPa Calm     96% 0in /  0.0mm 0 W/m2
07:02 39.9 °F /  4.4 °C 38.8 °F /  3.8 °C 29.8in /  1009.8hPa Calm     96% 0in /  0.0mm 0 W/m2
07:07 39.9 °F /  4.4 °C 38.8 °F /  3.8 °C 29.8in /  1009.8hPa Calm     96% 0in /  0.0mm 0 W/m2
07:12 39.9 °F /  4.4 °C 38.8 °F /  3.8 °C 29.8in /  1009.8hPa Calm     96% 0in /  0.0mm 0 W/m2
07:17 39.7 °F /  4.3 °C 38.7 °F /  3.7 °C 29.8in /  1009.8hPa Calm     96% 0in /  0.0mm 0 W/m2
07:22 39.7 °F /  4.3 °C 38.7 °F /  3.7 °C 29.8in /  1009.8hPa Calm     96% 0in /  0.0mm 0 W/m2
07:27 39.7 °F /  4.3 °C 38.7 °F /  3.7 °C 29.8in /  1009.8hPa Calm     96% 0in /  0.0mm 0 W/m2
07:32 39.6 °F /  4.2 °C 38.5 °F /  3.6 °C 29.8in /  1009.8hPa Calm     96% 0in /  0.0mm 0 W/m2
07:37 39.6 °F /  4.2 °C 38.5 °F /  3.6 °C 29.8in /  1009.8hPa Calm     96% 0in /  0.0mm 0 W/m2
07:42 39.4 °F /  4.1 °C 38.3 °F /  3.5 °C 29.8in /  1010.2hPa Calm     96% 0in /  0.0mm 0 W/m2
07:47 39 °F /  3.9 °C 37.9 °F /  3.3 °C 29.8in /  1009.8hPa Calm     96% 0in /  0.0mm 0 W/m2
07:52 38.8 °F /  3.8 °C 37.8 °F /  3.2 °C 29.8in /  1010.2hPa Calm     96% 0in /  0.0mm 0 W/m2
07:57 38.8 °F /  3.8 °C 37.8 °F /  3.2 °C 29.8in /  1009.8hPa Calm     96% 0in /  0.0mm 0 W/m2
08:02 38.7 °F /  3.7 °C 37.6 °F /  3.1 °C 29.8in /  1010.2hPa Calm   1mph /  1.6km/h 96% 0in /  0.0mm 0 W/m2
08:07 38.7 °F /  3.7 °C 37.6 °F /  3.1 °C 29.8in /  1010.2hPa Calm   1mph /  1.6km/h 96% 0in /  0.0mm 0 W/m2
08:12 38.7 °F /  3.7 °C 37.6 °F /  3.1 °C 29.8in /  1010.2hPa Calm     96% 0in /  0.0mm 0 W/m2
08:17 38.7 °F /  3.7 °C 37.6 °F /  3.1 °C 29.8in /  1010.2hPa Calm     96% 0in /  0.0mm 0 W/m2
08:22 38.7 °F /  3.7 °C 37.6 °F /  3.1 °C 29.8in /  1010.2hPa Calm     96% 0in /  0.0mm 0 W/m2
08:27 38.8 °F /  3.8 °C 37.8 °F /  3.2 °C 29.8in /  1010.2hPa Calm     96% 0in /  0.0mm 7 W/m2
08:33 39 °F /  3.9 °C 37.9 °F /  3.3 °C 29.8in /  1010.2hPa Calm     96% 0in /  0.0mm 7 W/m2
08:38 39.2 °F /  4 °C 38.5 °F /  3.6 °C 29.8in /  1010.2hPa Calm     97% 0in /  0.0mm 11 W/m2
08:43 39.4 °F /  4.1 °C 38.7 °F /  3.7 °C 29.8in /  1010.2hPa Calm     97% 0in /  0.0mm 12 W/m2
08:48 39.6 °F /  4.2 °C 38.8 °F /  3.8 °C 29.8in /  1010.2hPa Calm     97% 0in /  0.0mm 16 W/m2
08:53 39.7 °F /  4.3 °C 39 °F /  3.9 °C 29.8in /  1010.2hPa Calm     97% 0in /  0.0mm 18 W/m2
08:58 39.7 °F /  4.3 °C 39 °F /  3.9 °C 29.8in /  1010.2hPa Calm     97% 0in /  0.0mm 18 W/m2
09:03 39.9 °F /  4.4 °C 39.2 °F /  4 °C 29.8in /  1010.5hPa Calm     97% 0in /  0.0mm 19 W/m2
09:08 40.3 °F /  4.6 °C 39.6 °F /  4.2 °C 29.8in /  1010.2hPa Calm     97% 0in /  0.0mm 19 W/m2
09:13 40.3 °F /  4.6 °C 39.6 °F /  4.2 °C 29.8in /  1010.5hPa Calm     97% 0in /  0.0mm 18 W/m2
09:18 40.5 °F /  4.7 °C 39.7 °F /  4.3 °C 29.8in /  1010.5hPa Calm     97% 0in /  0.0mm 25 W/m2
09:23 40.6 °F /  4.8 °C 39.9 °F /  4.4 °C 29.8in /  1010.5hPa Calm     97% 0in /  0.0mm 25 W/m2
09:28 40.6 °F /  4.8 °C 39.9 °F /  4.4 °C 29.8in /  1010.5hPa Calm     97% 0in /  0.0mm 25 W/m2
09:33 40.6 °F /  4.8 °C 39.9 °F /  4.4 °C 29.8in /  1010.5hPa Calm     97% 0in /  0.0mm 39 W/m2
09:38 40.6 °F /  4.8 °C 39.9 °F /  4.4 °C 29.8in /  1010.5hPa Calm     97% 0in /  0.0mm 49 W/m2
09:43 40.8 °F /  4.9 °C 40.1 °F /  4.5 °C 29.8in /  1010.5hPa Calm     97% 0in /  0.0mm 69 W/m2
09:48 40.8 °F /  4.9 °C 40.1 °F /  4.5 °C 29.8in /  1010.5hPa Calm     97% 0in /  0.0mm 76 W/m2
09:53 41.2 °F /  5.1 °C 40.5 °F /  4.7 °C 29.9in /  1010.8hPa Calm     97% 0in /  0.0mm 81 W/m2
09:58 41.4 °F /  5.2 °C 40.6 °F /  4.8 °C 29.9in /  1010.8hPa Calm     97% 0in /  0.0mm 83 W/m2
10:03 41.5 °F /  5.3 °C 40.8 °F /  4.9 °C 29.9in /  1010.8hPa Calm     97% 0in /  0.0mm 98 W/m2
10:08 41.7 °F /  5.4 °C 41 °F /  5 °C 29.9in /  1010.8hPa Calm     97% 0in /  0.0mm 107 W/m2
10:13 42.1 °F /  5.6 °C 41.4 °F /  5.2 °C 29.9in /  1010.8hPa Calm     97% 0in /  0.0mm 104 W/m2
10:18 42.3 °F /  5.7 °C 41.5 °F /  5.3 °C 29.9in /  1010.8hPa Calm   1mph /  1.6km/h 97% 0in /  0.0mm 83 W/m2
10:23 42.4 °F /  5.8 °C 41.7 °F /  5.4 °C 29.9in /  1010.8hPa Calm   3mph /  4.8km/h 97% 0in /  0.0mm 77 W/m2
10:28 42.6 °F /  5.9 °C 41.9 °F /  5.5 °C 29.9in /  1010.8hPa ESE 2mph /  3.2km/h 3mph /  4.8km/h 97% 0in /  0.0mm 84 W/m2
10:33 43 °F /  6.1 °C 42.3 °F /  5.7 °C 29.9in /  1010.8hPa ESE 2mph /  3.2km/h 3mph /  4.8km/h 97% 0in /  0.0mm 95 W/m2
10:38 43.3 °F /  6.3 °C 42.3 °F /  5.7 °C 29.9in /  1010.8hPa ESE 0.9mph /  1.4km/h 4mph /  6.4km/h 96% 0in /  0.0mm 116 W/m2
10:43 43.9 °F /  6.6 °C 42.6 °F /  5.9 °C 29.9in /  1010.8hPa ESE 2.9mph /  4.7km/h 3mph /  4.8km/h 95% 0in /  0.0mm 116 W/m2
10:48 44.2 °F /  6.8 °C 42.3 °F /  5.7 °C 29.9in /  1010.8hPa ESE 0.9mph /  1.4km/h 2mph /  3.2km/h 93% 0in /  0.0mm 107 W/m2
10:53 44.8 °F /  7.1 °C 42.3 °F /  5.7 °C 29.9in /  1010.8hPa East 0.9mph /  1.4km/h 6mph /  9.7km/h 91% 0in /  0.0mm 91 W/m2
10:58 45 °F /  7.2 °C 41.9 °F /  5.5 °C 29.9in /  1010.8hPa ENE 0.9mph /  1.4km/h 4mph /  6.4km/h 89% 0in /  0.0mm 86 W/m2
11:03 45.1 °F /  7.3 °C 42.1 °F /  5.6 °C 29.9in /  1010.8hPa Calm   2mph /  3.2km/h 89% 0in /  0.0mm 93 W/m2
11:08 45.3 °F /  7.4 °C 41.9 °F /  5.5 °C 29.9in /  1010.8hPa ESE 0.9mph /  1.4km/h 4mph /  6.4km/h 88% 0in /  0.0mm 105 W/m2
11:13 45.5 °F /  7.5 °C 41.9 °F /  5.5 °C 29.9in /  1010.8hPa NE 0.9mph /  1.4km/h 3mph /  4.8km/h 87% 0in /  0.0mm 95 W/m2
11:18 45.7 °F /  7.6 °C 41.7 °F /  5.4 °C 29.9in /  1010.8hPa ESE 2mph /  3.2km/h 4mph /  6.4km/h 86% 0in /  0.0mm 90 W/m2
11:23 45.9 °F /  7.7 °C 41.9 °F /  5.5 °C 29.8in /  1010.5hPa East 0.9mph /  1.4km/h 5mph /  8km/h 86% 0in /  0.0mm 97 W/m2
11:28 45.9 °F /  7.7 °C 41.5 °F /  5.3 °C 29.8in /  1010.5hPa ESE 2mph /  3.2km/h 3mph /  4.8km/h 85% 0in /  0.0mm 84 W/m2
11:33 46 °F /  7.8 °C 41.7 °F /  5.4 °C 29.8in /  1010.5hPa ESE 4mph /  6.4km/h 4mph /  6.4km/h 85% 0in /  0.0mm 104 W/m2
11:38 46.2 °F /  7.9 °C 41.7 °F /  5.4 °C 29.8in /  1010.5hPa NE 0.9mph /  1.4km/h 2mph /  3.2km/h 84% 0in /  0.0mm 118 W/m2
11:43 46.6 °F /  8.1 °C 41.7 °F /  5.4 °C 29.8in /  1010.5hPa SE 2mph /  3.2km/h 4mph /  6.4km/h 83% 0in /  0.0mm 114 W/m2
11:48 46.9 °F /  8.3 °C 41.7 °F /  5.4 °C 29.8in /  1010.5hPa Calm   2mph /  3.2km/h 82% 0in /  0.0mm 102 W/m2
11:53 47.3 °F /  8.5 °C 42.1 °F /  5.6 °C 29.8in /  1010.5hPa East 2mph /  3.2km/h 3mph /  4.8km/h 82% 0in /  0.0mm 97 W/m2
11:58 47.5 °F /  8.6 °C 41.9 °F /  5.5 °C 29.8in /  1010.2hPa Calm   4mph /  6.4km/h 81% 0in /  0.0mm 98 W/m2
12:03 47.7 °F /  8.7 °C 42.1 °F /  5.6 °C 29.8in /  1010.5hPa ENE 2mph /  3.2km/h 4mph /  6.4km/h 81% 0in /  0.0mm 95 W/m2
12:08 47.8 °F /  8.8 °C 41.9 °F /  5.5 °C 29.8in /  1010.2hPa ESE 2mph /  3.2km/h 4mph /  6.4km/h 80% 0in /  0.0mm 102 W/m2
12:13 48 °F /  8.9 °C 42.1 °F /  5.6 °C 29.8in /  1010.2hPa East 0.9mph /  1.4km/h 3mph /  4.8km/h 80% 0in /  0.0mm 111 W/m2
12:18 48.2 °F /  9 °C 42.1 °F /  5.6 °C 29.8in /  1010.2hPa East 2mph /  3.2km/h 2mph /  3.2km/h 79% 0in /  0.0mm 118 W/m2
12:23 48.4 °F /  9.1 °C 41.9 °F /  5.5 °C 29.8in /  1010.2hPa SE 2.9mph /  4.7km/h 7mph /  11.3km/h 78% 0in /  0.0mm 107 W/m2
12:28 48.6 °F /  9.2 °C 42.1 °F /  5.6 °C 29.8in /  1010.2hPa ESE 2.9mph /  4.7km/h 6mph /  9.7km/h 78% 0in /  0.0mm 97 W/m2
12:33 48.7 °F /  9.3 °C 42.3 °F /  5.7 °C 29.8in /  1009.8hPa ESE 2mph /  3.2km/h 7mph /  11.3km/h 78% 0in /  0.0mm 88 W/m2
12:38 48.7 °F /  9.3 °C 42.4 °F /  5.8 °C 29.8in /  1009.8hPa East 0.9mph /  1.4km/h 3mph /  4.8km/h 79% 0in /  0.0mm 98 W/m2
12:43 48.7 °F /  9.3 °C 42.4 °F /  5.8 °C 29.8in /  1010.2hPa Calm   6mph /  9.7km/h 79% 0in /  0.0mm 107 W/m2
12:48 48.9 °F /  9.4 °C 42.4 °F /  5.8 °C 29.8in /  1009.8hPa ENE 2mph /  3.2km/h 4mph /  6.4km/h 78% 0in /  0.0mm 113 W/m2
12:53 49.3 °F /  9.6 °C 42.8 °F /  6 °C 29.8in /  1009.8hPa ESE 0.9mph /  1.4km/h 5mph /  8km/h 78% 0in /  0.0mm 111 W/m2
12:58 49.5 °F /  9.7 °C 42.6 °F /  5.9 °C 29.8in /  1009.8hPa ESE 2mph /  3.2km/h 6mph /  9.7km/h 77% 0in /  0.0mm 102 W/m2
13:03 49.6 °F /  9.8 °C 42.8 °F /  6 °C 29.8in /  1009.8hPa ESE 6mph /  9.7km/h 8mph /  12.9km/h 77% 0in /  0.0mm 91 W/m2
13:08 49.6 °F /  9.8 °C 42.4 °F /  5.8 °C 29.8in /  1009.5hPa ESE 6.9mph /  11.1km/h 7mph /  11.3km/h 76% 0in /  0.0mm 86 W/m2
13:13 49.6 °F /  9.8 °C 42.4 °F /  5.8 °C 29.8in /  1009.8hPa ESE 0.9mph /  1.4km/h 8mph /  12.9km/h 76% 0in /  0.0mm 84 W/m2
13:18 49.6 °F /  9.8 °C 42.8 °F /  6 °C 29.8in /  1009.8hPa Calm   3mph /  4.8km/h 77% 0in /  0.0mm 90 W/m2
13:23 49.5 °F /  9.7 °C 43.2 °F /  6.2 °C 29.8in /  1009.8hPa ENE 2mph /  3.2km/h 3mph /  4.8km/h 79% 0in /  0.0mm 83 W/m2
13:29 49.5 °F /  9.7 °C 42.8 °F /  6 °C 29.8in /  1009.8hPa Calm   2mph /  3.2km/h 78% 0in /  0.0mm 79 W/m2
13:34 49.5 °F /  9.7 °C 42.8 °F /  6 °C 29.8in /  1009.8hPa SSE 0.9mph /  1.4km/h 2mph /  3.2km/h 78% 0in /  0.0mm 79 W/m2
13:39 49.5 °F /  9.7 °C 43.2 °F /  6.2 °C 29.8in /  1009.8hPa Calm   1mph /  1.6km/h 79% 0in /  0.0mm 76 W/m2
13:44 49.3 °F /  9.6 °C 42.8 °F /  6 °C 29.8in /  1009.8hPa ESE 0.9mph /  1.4km/h 3mph /  4.8km/h 78% 0in /  0.0mm 69 W/m2
13:49 49.3 °F /  9.6 °C 42.8 °F /  6 °C 29.8in /  1009.8hPa East 0.9mph /  1.4km/h 2mph /  3.2km/h 78% 0in /  0.0mm 62 W/m2
13:54 49.3 °F /  9.6 °C 42.8 °F /  6 °C 29.8in /  1009.8hPa Calm   1mph /  1.6km/h 78% 0in /  0.0mm 56 W/m2
13:59 49.3 °F /  9.6 °C 42.8 °F /  6 °C 29.8in /  1010.2hPa Calm   1mph /  1.6km/h 78% 0in /  0.0mm 54 W/m2
14:04 49.1 °F /  9.5 °C 42.8 °F /  6 °C 29.8in /  1009.8hPa Calm   1mph /  1.6km/h 79% 0in /  0.0mm 56 W/m2
14:09 48.9 °F /  9.4 °C 43.3 °F /  6.3 °C 29.8in /  1009.8hPa Calm     81% 0in /  0.0mm 62 W/m2
14:14 48.7 °F /  9.3 °C 42.8 °F /  6 °C 29.8in /  1009.8hPa ESE 0.9mph /  1.4km/h 2mph /  3.2km/h 80% 0in /  0.0mm 79 W/m2
14:19 48.6 °F /  9.2 °C 43 °F /  6.1 °C 29.8in /  1009.8hPa ESE 2mph /  3.2km/h 2mph /  3.2km/h 81% 0in /  0.0mm 93 W/m2
14:24 48.6 °F /  9.2 °C 42.6 °F /  5.9 °C 29.8in /  1009.8hPa Calm   2mph /  3.2km/h 80% 0in /  0.0mm 97 W/m2
14:29 48.6 °F /  9.2 °C 42.3 °F /  5.7 °C 29.8in /  1009.5hPa ESE 2.9mph /  4.7km/h 4mph /  6.4km/h 79% 0in /  0.0mm 86 W/m2
14:34 48.7 °F /  9.3 °C 42.4 °F /  5.8 °C 29.8in /  1009.5hPa ESE 0.9mph /  1.4km/h 3mph /  4.8km/h 79% 0in /  0.0mm 67 W/m2
14:39 48.7 °F /  9.3 °C 42.4 °F /  5.8 °C 29.8in /  1009.5hPa Calm   4mph /  6.4km/h 79% 0in /  0.0mm 56 W/m2
14:44 48.7 °F /  9.3 °C 42.4 °F /  5.8 °C 29.8in /  1009.5hPa Calm   2mph /  3.2km/h 79% 0in /  0.0mm 56 W/m2
14:49 48.4 °F /  9.1 °C 42.3 °F /  5.7 °C 29.8in /  1009.5hPa East 0.9mph /  1.4km/h 3mph /  4.8km/h 79% 0in /  0.0mm 54 W/m2
14:54 48.4 °F /  9.1 °C 42.4 °F /  5.8 °C 29.8in /  1009.5hPa Calm   2mph /  3.2km/h 80% 0in /  0.0mm 62 W/m2
14:59 48 °F /  8.9 °C 42.1 °F /  5.6 °C 29.8in /  1009.5hPa Calm     80% 0in /  0.0mm 67 W/m2
15:04 48 °F /  8.9 °C 42.4 °F /  5.8 °C 29.8in /  1009.5hPa ESE 0.9mph /  1.4km/h 1mph /  1.6km/h 81% 0in /  0.0mm 63 W/m2
15:09 47.8 °F /  8.8 °C 42.3 °F /  5.7 °C 29.8in /  1009.5hPa ESE 2mph /  3.2km/h 2mph /  3.2km/h 81% 0in /  0.0mm 56 W/m2
15:14 47.8 °F /  8.8 °C 41.9 °F /  5.5 °C 29.8in /  1009.5hPa SE 0.9mph /  1.4km/h 3mph /  4.8km/h 80% 0in /  0.0mm 51 W/m2
15:19 47.8 °F /  8.8 °C 41.9 °F /  5.5 °C 29.8in /  1009.8hPa East 0.9mph /  1.4km/h 2mph /  3.2km/h 80% 0in /  0.0mm 53 W/m2
15:24 47.8 °F /  8.8 °C 41.9 °F /  5.5 °C 29.8in /  1009.5hPa ESE 0.9mph /  1.4km/h 1mph /  1.6km/h 80% 0in /  0.0mm 53 W/m2
15:29 47.8 °F /  8.8 °C 41.9 °F /  5.5 °C 29.8in /  1009.5hPa ESE 0.9mph /  1.4km/h 2mph /  3.2km/h 80% 0in /  0.0mm 49 W/m2
15:34 47.8 °F /  8.8 °C 41.9 °F /  5.5 °C 29.8in /  1009.5hPa Calm   3mph /  4.8km/h 80% 0in /  0.0mm 46 W/m2
15:39 47.8 °F /  8.8 °C 41.9 °F /  5.5 °C 29.8in /  1009.5hPa ESE 0.9mph /  1.4km/h 2mph /  3.2km/h 80% 0in /  0.0mm 37 W/m2
15:44 47.7 °F /  8.7 °C 41.7 °F /  5.4 °C 29.8in /  1009.1hPa ESE 0.9mph /  1.4km/h 1mph /  1.6km/h 80% 0in /  0.0mm 25 W/m2
15:49 47.7 °F /  8.7 °C 42.1 °F /  5.6 °C 29.8in /  1009.1hPa Calm     81% 0in /  0.0mm 19 W/m2
15:54 47.3 °F /  8.5 °C 41.7 °F /  5.4 °C 29.8in /  1009.1hPa Calm   1mph /  1.6km/h 81% 0in /  0.0mm 18 W/m2
15:59 46.9 °F /  8.3 °C 41.7 °F /  5.4 °C 29.8in /  1009.1hPa Calm   1mph /  1.6km/h 82% 0in /  0.0mm 14 W/m2
16:04 46.8 °F /  8.2 °C 41.9 °F /  5.5 °C 29.8in /  1009.1hPa Calm   1mph /  1.6km/h 83% 0in /  0.0mm 12 W/m2
16:09 46.4 °F /  8 °C 41.9 °F /  5.5 °C 29.8in /  1009.1hPa Calm     84% 0in /  0.0mm 11 W/m2
16:14 46 °F /  7.8 °C 41.5 °F /  5.3 °C 29.8in /  1009.1hPa SSE 0.9mph /  1.4km/h 1mph /  1.6km/h 84% 0in /  0.0mm 9 W/m2
16:19 45.7 °F /  7.6 °C 41.4 °F /  5.2 °C 29.8in /  1009.1hPa Calm   1mph /  1.6km/h 85% 0in /  0.0mm 7 W/m2
16:24 45.3 °F /  7.4 °C 41 °F /  5 °C 29.8in /  1009.1hPa South 0.9mph /  1.4km/h 1mph /  1.6km/h 85% 0in /  0.0mm 5 W/m2
16:29 45.1 °F /  7.3 °C 40.8 °F /  4.9 °C 29.8in /  1009.1hPa Calm   1mph /  1.6km/h 85% 0in /  0.0mm 0 W/m2
16:34 44.8 °F /  7.1 °C 40.5 °F /  4.7 °C 29.8in /  1009.1hPa Calm   1mph /  1.6km/h 85% 0in /  0.0mm 0 W/m2
16:39 44.8 °F /  7.1 °C 40.8 °F /  4.9 °C 29.8in /  1009.1hPa Calm     86% 0in /  0.0mm 0 W/m2
16:44 44.6 °F /  7 °C 40.6 °F /  4.8 °C 29.8in /  1009.1hPa Calm     86% 0in /  0.0mm 0 W/m2
16:49 44.4 °F /  6.9 °C 40.5 °F /  4.7 °C 29.8in /  1009.5hPa SSE 0.9mph /  1.4km/h 1mph /  1.6km/h 86% 0in /  0.0mm 0 W/m2
16:54 44.4 °F /  6.9 °C 40.5 °F /  4.7 °C 29.8in /  1009.5hPa Calm   1mph /  1.6km/h 86% 0in /  0.0mm 0 W/m2
16:59 44.4 °F /  6.9 °C 40.8 °F /  4.9 °C 29.8in /  1009.5hPa Calm     87% 0in /  0.0mm 0 W/m2
17:04 44.2 °F /  6.8 °C 40.6 °F /  4.8 °C 29.8in /  1009.5hPa ESE 2mph /  3.2km/h 3mph /  4.8km/h 87% 0in /  0.0mm 0 W/m2
17:09 44.2 °F /  6.8 °C 40.6 °F /  4.8 °C 29.8in /  1009.1hPa Calm     87% 0in /  0.0mm 0 W/m2
17:14 44.2 °F /  6.8 °C 40.6 °F /  4.8 °C 29.8in /  1009.1hPa Calm   3mph /  4.8km/h 87% 0in /  0.0mm 0 W/m2
17:19 44.2 °F /  6.8 °C 40.6 °F /  4.8 °C 29.8in /  1009.1hPa Calm   2mph /  3.2km/h 87% 0in /  0.0mm 0 W/m2
17:24 44.2 °F /  6.8 °C 40.6 °F /  4.8 °C 29.8in /  1009.1hPa Calm   2mph /  3.2km/h 87% 0in /  0.0mm 0 W/m2
17:29 44.2 °F /  6.8 °C 40.1 °F /  4.5 °C 29.8in /  1009.1hPa ESE 0.9mph /  1.4km/h 3mph /  4.8km/h 85% 0in /  0.0mm 0 W/m2
17:34 44.2 °F /  6.8 °C 40.1 °F /  4.5 °C 29.8in /  1008.8hPa Calm   1mph /  1.6km/h 85% 0in /  0.0mm 0 W/m2
17:39 44.2 °F /  6.8 °C 40.1 °F /  4.5 °C 29.8in /  1008.8hPa Calm   1mph /  1.6km/h 85% 0in /  0.0mm 0 W/m2
17:44 44.2 °F /  6.8 °C 40.1 °F /  4.5 °C 29.8in /  1008.8hPa Calm   2mph /  3.2km/h 85% 0in /  0.0mm 0 W/m2
17:49 44.2 °F /  6.8 °C 39.7 °F /  4.3 °C 29.8in /  1008.8hPa East 2mph /  3.2km/h 3mph /  4.8km/h 84% 0in /  0.0mm 0 W/m2
17:54 44.2 °F /  6.8 °C 39.7 °F /  4.3 °C 29.8in /  1009.1hPa Calm   2mph /  3.2km/h 84% 0in /  0.0mm 0 W/m2
17:59 44.4 °F /  6.9 °C 39.6 °F /  4.2 °C 29.8in /  1009.1hPa Calm   1mph /  1.6km/h 83% 0in /  0.0mm 0 W/m2
18:04 44.6 °F /  7 °C 40.1 °F /  4.5 °C 29.8in /  1009.1hPa Calm   1mph /  1.6km/h 84% 0in /  0.0mm 0 W/m2
18:09 44.6 °F /  7 °C 40.1 °F /  4.5 °C 29.8in /  1009.1hPa Calm     84% 0in /  0.0mm 0 W/m2
18:14 44.4 °F /  6.9 °C 39.9 °F /  4.4 °C 29.8in /  1009.1hPa Calm     84% 0in /  0.0mm 0 W/m2
18:19 44.4 °F /  6.9 °C 39.9 °F /  4.4 °C 29.8in /  1009.1hPa Calm   1mph /  1.6km/h 84% 0in /  0.0mm 0 W/m2
18:24 44.4 °F /  6.9 °C 40.3 °F /  4.6 °C 29.8in /  1009.1hPa Calm     85% 0in /  0.0mm 0 W/m2
18:29 44.2 °F /  6.8 °C 40.1 °F /  4.5 °C 29.8in /  1009.1hPa Calm     85% 0in /  0.0mm 0 W/m2
18:34 44.2 °F /  6.8 °C 40.1 °F /  4.5 °C 29.8in /  1009.1hPa South 0.9mph /  1.4km/h 3mph /  4.8km/h 85% 0in /  0.0mm 0 W/m2
18:39 44.2 °F /  6.8 °C 40.1 °F /  4.5 °C 29.8in /  1009.1hPa South 0.9mph /  1.4km/h 1mph /  1.6km/h 85% 0in /  0.0mm 0 W/m2
18:44 44.2 °F /  6.8 °C 39.7 °F /  4.3 °C 29.8in /  1009.1hPa Calm   1mph /  1.6km/h 84% 0in /  0.0mm 0 W/m2
18:49 44.2 °F /  6.8 °C 40.1 °F /  4.5 °C 29.8in /  1009.1hPa Calm     85% 0in /  0.0mm 0 W/m2
18:54 44.1 °F /  6.7 °C 39.9 °F /  4.4 °C 29.8in /  1009.1hPa Calm   1mph /  1.6km/h 85% 0in /  0.0mm 0 W/m2
18:59 43.9 °F /  6.6 °C 39.7 °F /  4.3 °C 29.8in /  1009.5hPa Calm     85% 0in /  0.0mm 0 W/m2
19:04 43.9 °F /  6.6 °C 39.9 °F /  4.4 °C 29.8in /  1009.5hPa Calm     86% 0in /  0.0mm 0 W/m2
19:09 43.5 °F /  6.4 °C 39.6 °F /  4.2 °C 29.8in /  1009.5hPa Calm     86% 0in /  0.0mm 0 W/m2
19:14 43.5 °F /  6.4 °C 39.6 °F /  4.2 °C 29.8in /  1009.1hPa Calm     86% 0in /  0.0mm 0 W/m2
19:19 43.3 °F /  6.3 °C 39.4 °F /  4.1 °C 29.8in /  1009.5hPa Calm     86% 0in /  0.0mm 0 W/m2
19:24 43.2 °F /  6.2 °C 39.2 °F /  4 °C 29.8in /  1009.1hPa Calm     86% 0in /  0.0mm 0 W/m2
19:29 43.2 °F /  6.2 °C 39.6 °F /  4.2 °C 29.8in /  1009.5hPa Calm     87% 0in /  0.0mm 0 W/m2
19:34 43 °F /  6.1 °C 39.4 °F /  4.1 °C 29.8in /  1009.5hPa Calm     87% 0in /  0.0mm 0 W/m2
19:39 43 °F /  6.1 °C 39.4 °F /  4.1 °C 29.8in /  1009.1hPa Calm     87% 0in /  0.0mm 0 W/m2
19:44 43 °F /  6.1 °C 39.7 °F /  4.3 °C 29.8in /  1009.1hPa Calm     88% 0in /  0.0mm 0 W/m2
19:50 42.8 °F /  6 °C 39.6 °F /  4.2 °C 29.8in /  1009.1hPa Calm     88% 0in /  0.0mm 0 W/m2
19:55 42.8 °F /  6 °C 39.6 °F /  4.2 °C 29.8in /  1009.1hPa Calm     88% 0in /  0.0mm 0 W/m2
20:00 42.6 °F /  5.9 °C 39.4 °F /  4.1 °C 29.8in /  1009.1hPa Calm     88% 0in /  0.0mm 0 W/m2
20:05 42.6 °F /  5.9 °C 39.4 °F /  4.1 °C 29.8in /  1009.1hPa Calm     88% 0in /  0.0mm 0 W/m2
20:10 42.4 °F /  5.8 °C 39.2 °F /  4 °C 29.8in /  1009.1hPa Calm     88% 0in /  0.0mm 0 W/m2
20:15 42.4 °F /  5.8 °C 39.4 °F /  4.1 °C 29.8in /  1008.8hPa Calm     89% 0in /  0.0mm 0 W/m2
20:20 42.4 °F /  5.8 °C 39.4 °F /  4.1 °C 29.8in /  1008.8hPa Calm     89% 0in /  0.0mm 0 W/m2
20:25 42.4 °F /  5.8 °C 39.4 °F /  4.1 °C 29.8in /  1008.8hPa Calm     89% 0in /  0.0mm 0 W/m2
20:30 42.4 °F /  5.8 °C 39.4 °F /  4.1 °C 29.8in /  1008.8hPa Calm     89% 0in /  0.0mm 0 W/m2
20:35 42.3 °F /  5.7 °C 39.2 °F /  4 °C 29.8in /  1008.8hPa Calm     89% 0in /  0.0mm 0 W/m2
20:40 42.3 °F /  5.7 °C 39.2 °F /  4 °C 29.8in /  1008.8hPa Calm     89% 0in /  0.0mm 0 W/m2
20:45 42.3 °F /  5.7 °C 39.2 °F /  4 °C 29.8in /  1008.8hPa Calm     89% 0in /  0.0mm 0 W/m2
20:50 42.1 °F /  5.6 °C 39 °F /  3.9 °C 29.8in /  1008.8hPa Calm     89% 0in /  0.0mm 0 W/m2
20:55 41.9 °F /  5.5 °C 38.8 °F /  3.8 °C 29.8in /  1008.8hPa Calm     89% 0in /  0.0mm 0 W/m2
21:00 41.7 °F /  5.4 °C 39 °F /  3.9 °C 29.8in /  1008.8hPa Calm     90% 0in /  0.0mm 0 W/m2
21:05 41.7 °F /  5.4 °C 39 °F /  3.9 °C 29.8in /  1008.8hPa South 0.9mph /  1.4km/h 1mph /  1.6km/h 90% 0in /  0.0mm 0 W/m2
21:10 41.5 °F /  5.3 °C 38.8 °F /  3.8 °C 29.8in /  1008.8hPa Calm   1mph /  1.6km/h 90% 0in /  0.0mm 0 W/m2
21:15 41.5 °F /  5.3 °C 38.8 °F /  3.8 °C 29.8in /  1008.8hPa Calm     90% 0in /  0.0mm 0 W/m2
21:20 41.5 °F /  5.3 °C 39.2 °F /  4 °C 29.8in /  1008.8hPa Calm   2mph /  3.2km/h 91% 0in /  0.0mm 0 W/m2
21:25 41.5 °F /  5.3 °C 39.2 °F /  4 °C 29.8in /  1008.8hPa Calm   1mph /  1.6km/h 91% 0in /  0.0mm 0 W/m2
21:30 41.7 °F /  5.4 °C 39.2 °F /  4 °C 29.8in /  1008.8hPa Calm   2mph /  3.2km/h 91% 0in /  0.0mm 0 W/m2
21:35 41.7 °F /  5.4 °C 39.2 °F /  4 °C 29.8in /  1008.8hPa Calm   1mph /  1.6km/h 91% 0in /  0.0mm 0 W/m2
21:40 41.7 °F /  5.4 °C 39.2 °F /  4 °C 29.8in /  1008.5hPa Calm     91% 0in /  0.0mm 0 W/m2
21:45 41.7 °F /  5.4 °C 39.2 °F /  4 °C 29.8in /  1008.5hPa Calm     91% 0in /  0.0mm 0 W/m2
21:50 41.9 °F /  5.5 °C 39.4 °F /  4.1 °C 29.8in /  1008.5hPa Calm   1mph /  1.6km/h 91% 0in /  0.0mm 0 W/m2
21:55 41.9 °F /  5.5 °C 39.4 °F /  4.1 °C 29.8in /  1008.5hPa Calm     91% 0in /  0.0mm 0 W/m2
22:00 42.1 °F /  5.6 °C 39.6 °F /  4.2 °C 29.8in /  1008.8hPa Calm     91% 0in /  0.0mm 0 W/m2
22:05 42.1 °F /  5.6 °C 39.6 °F /  4.2 °C 29.8in /  1008.8hPa Calm     91% 0in /  0.0mm 0 W/m2
22:10 42.1 °F /  5.6 °C 39.6 °F /  4.2 °C 29.8in /  1008.8hPa Calm   1mph /  1.6km/h 91% 0in /  0.0mm 0 W/m2
22:15 42.1 °F /  5.6 °C 39.6 °F /  4.2 °C 29.8in /  1008.8hPa Calm     91% 0in /  0.0mm 0 W/m2
22:20 42.1 °F /  5.6 °C 39.6 °F /  4.2 °C 29.8in /  1008.8hPa Calm   1mph /  1.6km/h 91% 0in /  0.0mm 0 W/m2
22:25 42.3 °F /  5.7 °C 39.7 °F /  4.3 °C 29.8in /  1008.8hPa Calm     91% 0in /  0.0mm 0 W/m2
22:30 42.3 °F /  5.7 °C 39.7 °F /  4.3 °C 29.8in /  1008.8hPa Calm     91% 0in /  0.0mm 0 W/m2
22:35 42.3 °F /  5.7 °C 39.7 °F /  4.3 °C 29.8in /  1008.8hPa Calm     91% 0in /  0.0mm 0 W/m2
22:40 42.3 °F /  5.7 °C 39.7 °F /  4.3 °C 29.8in /  1008.8hPa Calm     91% 0in /  0.0mm 0 W/m2
22:45 42.3 °F /  5.7 °C 39.7 °F /  4.3 °C 29.8in /  1008.8hPa Calm     91% 0in /  0.0mm 0 W/m2
22:50 42.4 °F /  5.8 °C 39.9 °F /  4.4 °C 29.8in /  1009.1hPa Calm     91% 0in /  0.0mm 0 W/m2
22:55 42.4 °F /  5.8 °C 39.9 °F /  4.4 °C 29.8in /  1009.1hPa Calm     91% 0in /  0.0mm 0 W/m2
23:00 42.4 °F /  5.8 °C 39.9 °F /  4.4 °C 29.8in /  1009.1hPa Calm     91% 0in /  0.0mm 0 W/m2
23:05 42.4 °F /  5.8 °C 39.9 °F /  4.4 °C 29.8in /  1009.1hPa Calm     91% 0in /  0.0mm 0 W/m2
23:10 42.3 °F /  5.7 °C 39.7 °F /  4.3 °C 29.8in /  1009.1hPa Calm     91% 0in /  0.0mm 0 W/m2
23:15 42.4 °F /  5.8 °C 39.9 °F /  4.4 °C 29.8in /  1009.1hPa Calm     91% 0in /  0.0mm 0 W/m2
23:20 42.4 °F /  5.8 °C 39.9 °F /  4.4 °C 29.8in /  1009.1hPa Calm     91% 0in /  0.0mm 0 W/m2
23:25 42.4 °F /  5.8 °C 40.3 °F /  4.6 °C 29.8in /  1009.1hPa Calm     92% 0in /  0.0mm 0 W/m2
23:30 42.4 °F /  5.8 °C 39.9 °F /  4.4 °C 29.8in /  1009.1hPa Calm     91% 0in /  0.0mm 0 W/m2
23:35 42.4 °F /  5.8 °C 39.9 °F /  4.4 °C 29.8in /  1009.5hPa Calm     91% 0in /  0.0mm 0 W/m2
23:40 42.4 °F /  5.8 °C 39.9 °F /  4.4 °C 29.8in /  1009.5hPa Calm     91% 0in /  0.0mm 0 W/m2
23:45 42.4 °F /  5.8 °C 39.9 °F /  4.4 °C 29.8in /  1009.5hPa Calm     91% 0in /  0.0mm 0 W/m2
23:50 42.4 °F /  5.8 °C 40.3 °F /  4.6 °C 29.8in /  1009.5hPa Calm     92% 0in /  0.0mm 0 W/m2
23:55 42.4 °F /  5.8 °C 40.3 °F /  4.6 °C 29.8in /  1009.5hPa Calm     92% 0in /  0.0mm 0 W/m2
Juneau County Weather
Compliments of Weather Underground - 4 mb